Decoded Metar for LEDA (LLEIDA in SPAIN) (IATA:ILD) | Meteo·Mobile Aviation Weather
aviador You're here:

LEDA Decoded Metar

LLEIDA in SPAIN
Report Time2020-02-19 03:00:00
UTC Time2020-02-19 03:09:58
Flight Rules vfr VFR
WindVRB at 02 kt
Visibility9999 m
Phenomena:N/A
Clouds:N/A
Expected CloudBase > 400 ft AGL from Temp-Dew spread
CeilingNone
Temp01°C (ISA -12)
Dew Point00°C (93% RH)
AAT-1.7°C
QNH1031 hPa
Density Alt-794 ft
Elevation1,152 ft
Report Wrong Elevation
Raw Report
METAR LEDA 190300Z AUTO VRB02KT CAVOK 01/00 Q1031=

Extra information for LEDA:More info

Metar Taf Metar & Taf Last 4 Metars F.Rules Stats Wind Profile Meteogram Temp Stats Airport Information Weather charts Add Link Nearby VenuesMetar ALERT Operation Metar Decoded Social comments